sensor_id;sensor_type;location;lat;lon;timestamp;temperature;humidity
1225;DHT22;602;48.000;7.840;2023-07-31T00:02:26;19.50;99.90
1225;DHT22;602;48.000;7.840;2023-07-31T00:04:52;19.50;99.90
1225;DHT22;602;48.000;7.840;2023-07-31T00:07:19;19.50;99.90
1225;DHT22;602;48.000;7.840;2023-07-31T00:09:46;19.50;99.90
1225;DHT22;602;48.000;7.840;2023-07-31T00:12:13;19.50;99.90
1225;DHT22;602;48.000;7.840;2023-07-31T00:14:41;19.50;99.90
1225;DHT22;602;48.000;7.840;2023-07-31T00:17:08;19.40;99.90
1225;DHT22;602;48.000;7.840;2023-07-31T00:19:35;19.40;99.90
1225;DHT22;602;48.000;7.840;2023-07-31T00:22:02;19.30;99.90
1225;DHT22;602;48.000;7.840;2023-07-31T00:24:29;19.30;99.90
1225;DHT22;602;48.000;7.840;2023-07-31T00:26:56;19.20;99.90
1225;DHT22;602;48.000;7.840;2023-07-31T00:29:23;19.10;99.90
1225;DHT22;602;48.000;7.840;2023-07-31T00:31:51;19.10;99.90
1225;DHT22;602;48.000;7.840;2023-07-31T00:34:18;19.10;99.90
1225;DHT22;602;48.000;7.840;2023-07-31T00:36:45;19.10;99.90
1225;DHT22;602;48.000;7.840;2023-07-31T00:39:12;19.10;99.90
1225;DHT22;602;48.000;7.840;2023-07-31T00:41:39;19.10;99.90
1225;DHT22;602;48.000;7.840;2023-07-31T00:44:06;19.10;99.90
1225;DHT22;602;48.000;7.840;2023-07-31T00:46:33;19.10;99.90
1225;DHT22;602;48.000;7.840;2023-07-31T00:49:01;19.00;99.90
1225;DHT22;602;48.000;7.840;2023-07-31T00:51:28;18.90;99.90
1225;DHT22;602;48.000;7.840;2023-07-31T00:53:55;18.90;99.90
1225;DHT22;602;48.000;7.840;2023-07-31T00:56:23;18.80;99.90
1225;DHT22;602;48.000;7.840;2023-07-31T00:58:50;18.80;99.90
1225;DHT22;602;48.000;7.840;2023-07-31T01:01:17;18.80;99.90
1225;DHT22;602;48.000;7.840;2023-07-31T01:03:44;18.90;99.90
1225;DHT22;602;48.000;7.840;2023-07-31T01:06:17;18.80;99.90
1225;DHT22;602;48.000;7.840;2023-07-31T01:08:54;18.80;99.90
1225;DHT22;602;48.000;7.840;2023-07-31T01:11:27;18.80;99.90
1225;DHT22;602;48.000;7.840;2023-07-31T01:13:55;18.80;99.90
1225;DHT22;602;48.000;7.840;2023-07-31T01:16:22;18.70;99.90
1225;DHT22;602;48.000;7.840;2023-07-31T01:18:49;18.70;99.90
1225;DHT22;602;48.000;7.840;2023-07-31T01:21:35;18.70;99.90
1225;DHT22;602;48.000;7.840;2023-07-31T01:24:20;18.80;99.90
1225;DHT22;602;48.000;7.840;2023-07-31T01:26:54;18.80;99.90
1225;DHT22;602;48.000;7.840;2023-07-31T01:29:29;18.70;99.90
1225;DHT22;602;48.000;7.840;2023-07-31T01:31:59;18.70;99.90
1225;DHT22;602;48.000;7.840;2023-07-31T01:34:28;18.70;99.90
1225;DHT22;602;48.000;7.840;2023-07-31T01:36:56;18.60;99.90
1225;DHT22;602;48.000;7.840;2023-07-31T01:39:23;18.60;99.90
1225;DHT22;602;48.000;7.840;2023-07-31T01:41:52;18.60;99.90
1225;DHT22;602;48.000;7.840;2023-07-31T01:44:19;18.50;99.90
1225;DHT22;602;48.000;7.840;2023-07-31T01:46:45;18.60;99.90
1225;DHT22;602;48.000;7.840;2023-07-31T01:49:13;18.60;99.90
1225;DHT22;602;48.000;7.840;2023-07-31T01:51:39;18.60;99.90
1225;DHT22;602;48.000;7.840;2023-07-31T01:54:06;18.60;99.90
1225;DHT22;602;48.000;7.840;2023-07-31T01:56:33;18.60;99.90
1225;DHT22;602;48.000;7.840;2023-07-31T01:59:01;18.50;99.90
1225;DHT22;602;48.000;7.840;2023-07-31T02:01:28;18.50;99.90
1225;DHT22;602;48.000;7.840;2023-07-31T02:03:55;18.40;99.90
1225;DHT22;602;48.000;7.840;2023-07-31T02:06:23;18.40;99.90
1225;DHT22;602;48.000;7.840;2023-07-31T02:08:50;18.40;99.90
1225;DHT22;602;48.000;7.840;2023-07-31T02:11:16;18.40;99.90
1225;DHT22;602;48.000;7.840;2023-07-31T02:13:43;18.30;99.90
1225;DHT22;602;48.000;7.840;2023-07-31T02:16:11;18.30;99.90
1225;DHT22;602;48.000;7.840;2023-07-31T02:18:38;18.20;99.90
1225;DHT22;602;48.000;7.840;2023-07-31T02:21:05;18.20;99.90
1225;DHT22;602;48.000;7.840;2023-07-31T02:23:32;18.10;99.90
1225;DHT22;602;48.000;7.840;2023-07-31T02:25:59;18.10;99.90
1225;DHT22;602;48.000;7.840;2023-07-31T02:28:26;18.20;99.90
1225;DHT22;602;48.000;7.840;2023-07-31T02:30:53;18.10;99.90
1225;DHT22;602;48.000;7.840;2023-07-31T02:33:21;18.10;99.90
1225;DHT22;602;48.000;7.840;2023-07-31T02:35:48;18.10;99.90
1225;DHT22;602;48.000;7.840;2023-07-31T02:38:14;18.00;99.90
1225;DHT22;602;48.000;7.840;2023-07-31T02:40:41;18.00;99.90
1225;DHT22;602;48.000;7.840;2023-07-31T02:43:08;18.00;99.90
1225;DHT22;602;48.000;7.840;2023-07-31T02:45:35;17.90;99.90
1225;DHT22;602;48.000;7.840;2023-07-31T02:48:02;17.90;99.90
1225;DHT22;602;48.000;7.840;2023-07-31T02:50:30;17.80;99.90
1225;DHT22;602;48.000;7.840;2023-07-31T02:52:57;17.80;99.90
1225;DHT22;602;48.000;7.840;2023-07-31T02:55:24;17.80;99.90
1225;DHT22;602;48.000;7.840;2023-07-31T02:57:51;17.80;99.90
1225;DHT22;602;48.000;7.840;2023-07-31T03:00:18;17.70;99.90
1225;DHT22;602;48.000;7.840;2023-07-31T03:02:45;17.70;99.90
1225;DHT22;602;48.000;7.840;2023-07-31T03:05:12;17.80;99.90
1225;DHT22;602;48.000;7.840;2023-07-31T03:07:40;17.80;99.90
1225;DHT22;602;48.000;7.840;2023-07-31T03:10:08;17.80;99.90
1225;DHT22;602;48.000;7.840;2023-07-31T03:12:35;17.70;99.90
1225;DHT22;602;48.000;7.840;2023-07-31T03:15:02;17.60;99.90
1225;DHT22;602;48.000;7.840;2023-07-31T03:17:28;17.60;99.90
1225;DHT22;602;48.000;7.840;2023-07-31T03:19:55;17.60;99.90
1225;DHT22;602;48.000;7.840;2023-07-31T03:22:22;17.60;99.90
1225;DHT22;602;48.000;7.840;2023-07-31T03:24:50;17.60;99.90
1225;DHT22;602;48.000;7.840;2023-07-31T03:27:18;17.70;99.90
1225;DHT22;602;48.000;7.840;2023-07-31T03:29:45;17.60;99.90
1225;DHT22;602;48.000;7.840;2023-07-31T03:32:12;17.60;99.90
1225;DHT22;602;48.000;7.840;2023-07-31T03:34:39;17.60;99.90
1225;DHT22;602;48.000;7.840;2023-07-31T03:37:05;17.60;99.90
1225;DHT22;602;48.000;7.840;2023-07-31T03:39:34;17.60;99.90
1225;DHT22;602;48.000;7.840;2023-07-31T03:42:03;17.70;99.90
1225;DHT22;602;48.000;7.840;2023-07-31T03:44:30;17.70;99.90
1225;DHT22;602;48.000;7.840;2023-07-31T03:46:56;17.60;99.90
1225;DHT22;602;48.000;7.840;2023-07-31T03:49:23;17.70;99.90
1225;DHT22;602;48.000;7.840;2023-07-31T03:51:50;17.60;99.90
1225;DHT22;602;48.000;7.840;2023-07-31T03:54:17;17.60;99.90
1225;DHT22;602;48.000;7.840;2023-07-31T03:56:44;17.50;99.90
1225;DHT22;602;48.000;7.840;2023-07-31T03:59:12;17.50;99.90
1225;DHT22;602;48.000;7.840;2023-07-31T04:01:39;17.50;99.90
1225;DHT22;602;48.000;7.840;2023-07-31T04:04:06;17.50;99.90
1225;DHT22;602;48.000;7.840;2023-07-31T04:06:33;17.50;99.90
1225;DHT22;602;48.000;7.840;2023-07-31T04:08:59;17.40;99.90
1225;DHT22;602;48.000;7.840;2023-07-31T04:11:26;17.40;99.90
1225;DHT22;602;48.000;7.840;2023-07-31T04:13:53;17.30;99.90
1225;DHT22;602;48.000;7.840;2023-07-31T04:16:21;17.30;99.90
1225;DHT22;602;48.000;7.840;2023-07-31T04:18:48;17.20;99.90
1225;DHT22;602;48.000;7.840;2023-07-31T04:21:15;17.20;99.90
1225;DHT22;602;48.000;7.840;2023-07-31T04:23:43;17.10;99.90
1225;DHT22;602;48.000;7.840;2023-07-31T04:26:10;17.20;99.90
1225;DHT22;602;48.000;7.840;2023-07-31T04:28:37;17.30;99.90
1225;DHT22;602;48.000;7.840;2023-07-31T04:31:03;17.30;99.90
1225;DHT22;602;48.000;7.840;2023-07-31T04:33:32;17.40;99.90
1225;DHT22;602;48.000;7.840;2023-07-31T04:35:59;17.40;99.90
1225;DHT22;602;48.000;7.840;2023-07-31T04:38:26;17.30;99.90
1225;DHT22;602;48.000;7.840;2023-07-31T04:40:53;17.40;99.90
1225;DHT22;602;48.000;7.840;2023-07-31T04:43:20;17.40;99.90
1225;DHT22;602;48.000;7.840;2023-07-31T04:45:47;17.40;99.90
1225;DHT22;602;48.000;7.840;2023-07-31T04:48:14;17.40;99.90
1225;DHT22;602;48.000;7.840;2023-07-31T04:50:42;17.50;99.90
1225;DHT22;602;48.000;7.840;2023-07-31T04:53:09;17.40;99.90
1225;DHT22;602;48.000;7.840;2023-07-31T04:55:36;17.50;99.90
1225;DHT22;602;48.000;7.840;2023-07-31T04:58:03;17.50;99.90
1225;DHT22;602;48.000;7.840;2023-07-31T05:00:30;17.50;99.90
1225;DHT22;602;48.000;7.840;2023-07-31T05:02:56;17.50;99.90
1225;DHT22;602;48.000;7.840;2023-07-31T05:05:23;17.60;99.90
1225;DHT22;602;48.000;7.840;2023-07-31T05:07:52;17.60;99.90
1225;DHT22;602;48.000;7.840;2023-07-31T05:10:18;17.60;99.90
1225;DHT22;602;48.000;7.840;2023-07-31T05:12:45;17.70;99.90
1225;DHT22;602;48.000;7.840;2023-07-31T05:15:12;17.80;99.90
1225;DHT22;602;48.000;7.840;2023-07-31T05:17:39;17.80;99.90
1225;DHT22;602;48.000;7.840;2023-07-31T05:20:07;17.80;99.90
1225;DHT22;602;48.000;7.840;2023-07-31T05:22:34;17.80;99.90
1225;DHT22;602;48.000;7.840;2023-07-31T05:25:03;17.90;99.90
1225;DHT22;602;48.000;7.840;2023-07-31T05:27:30;18.00;99.90
1225;DHT22;602;48.000;7.840;2023-07-31T05:29:58;18.10;99.90
1225;DHT22;602;48.000;7.840;2023-07-31T05:32:24;18.00;99.90
1225;DHT22;602;48.000;7.840;2023-07-31T05:34:52;18.00;99.90
1225;DHT22;602;48.000;7.840;2023-07-31T05:37:22;18.10;99.90
1225;DHT22;602;48.000;7.840;2023-07-31T05:39:48;18.10;99.90
1225;DHT22;602;48.000;7.840;2023-07-31T05:42:17;18.30;99.90
1225;DHT22;602;48.000;7.840;2023-07-31T05:44:44;18.20;99.90
1225;DHT22;602;48.000;7.840;2023-07-31T05:47:11;18.20;99.90
1225;DHT22;602;48.000;7.840;2023-07-31T05:49:38;18.30;99.90
1225;DHT22;602;48.000;7.840;2023-07-31T05:52:05;18.30;99.90
1225;DHT22;602;48.000;7.840;2023-07-31T05:54:33;18.40;99.90
1225;DHT22;602;48.000;7.840;2023-07-31T05:56:59;18.50;99.90
1225;DHT22;602;48.000;7.840;2023-07-31T05:59:28;18.50;99.90
1225;DHT22;602;48.000;7.840;2023-07-31T06:01:56;18.50;99.90
1225;DHT22;602;48.000;7.840;2023-07-31T06:04:23;18.60;99.90
1225;DHT22;602;48.000;7.840;2023-07-31T06:06:51;18.60;99.90
1225;DHT22;602;48.000;7.840;2023-07-31T06:09:18;18.70;99.90
1225;DHT22;602;48.000;7.840;2023-07-31T06:11:45;18.80;99.90
1225;DHT22;602;48.000;7.840;2023-07-31T06:14:12;18.80;99.90
1225;DHT22;602;48.000;7.840;2023-07-31T06:16:41;18.90;99.90
1225;DHT22;602;48.000;7.840;2023-07-31T06:19:09;18.90;99.90
1225;DHT22;602;48.000;7.840;2023-07-31T06:21:36;18.90;99.90
1225;DHT22;602;48.000;7.840;2023-07-31T06:24:04;18.90;99.90
1225;DHT22;602;48.000;7.840;2023-07-31T06:26:31;19.00;99.90
1225;DHT22;602;48.000;7.840;2023-07-31T06:28:58;19.10;99.90
1225;DHT22;602;48.000;7.840;2023-07-31T06:31:25;19.10;99.90
1225;DHT22;602;48.000;7.840;2023-07-31T06:33:53;19.10;99.90
1225;DHT22;602;48.000;7.840;2023-07-31T06:36:20;19.30;99.90
1225;DHT22;602;48.000;7.840;2023-07-31T06:38:47;19.40;99.90
1225;DHT22;602;48.000;7.840;2023-07-31T06:41:14;19.50;99.90
1225;DHT22;602;48.000;7.840;2023-07-31T06:43:41;19.60;99.90
1225;DHT22;602;48.000;7.840;2023-07-31T06:46:08;19.70;99.90
1225;DHT22;602;48.000;7.840;2023-07-31T06:48:35;19.80;99.90
1225;DHT22;602;48.000;7.840;2023-07-31T06:51:04;19.80;99.90
1225;DHT22;602;48.000;7.840;2023-07-31T06:53:31;19.90;99.90
1225;DHT22;602;48.000;7.840;2023-07-31T06:55:58;20.00;99.90
1225;DHT22;602;48.000;7.840;2023-07-31T06:58:25;20.00;99.90
1225;DHT22;602;48.000;7.840;2023-07-31T07:00:51;20.00;99.90
1225;DHT22;602;48.000;7.840;2023-07-31T07:03:18;20.10;99.90
1225;DHT22;602;48.000;7.840;2023-07-31T07:05:45;20.10;99.90
1225;DHT22;602;48.000;7.840;2023-07-31T07:08:14;20.10;99.90
1225;DHT22;602;48.000;7.840;2023-07-31T07:10:42;20.10;99.90
1225;DHT22;602;48.000;7.840;2023-07-31T07:13:09;20.20;99.90
1225;DHT22;602;48.000;7.840;2023-07-31T07:15:36;20.30;99.90
1225;DHT22;602;48.000;7.840;2023-07-31T07:18:02;20.20;99.90
1225;DHT22;602;48.000;7.840;2023-07-31T07:20:30;20.20;99.90
1225;DHT22;602;48.000;7.840;2023-07-31T07:22:56;20.40;99.90
1225;DHT22;602;48.000;7.840;2023-07-31T07:25:24;20.50;99.90
1225;DHT22;602;48.000;7.840;2023-07-31T07:27:51;20.80;99.90
1225;DHT22;602;48.000;7.840;2023-07-31T07:30:18;21.10;99.90
1225;DHT22;602;48.000;7.840;2023-07-31T07:32:45;21.30;99.90
1225;DHT22;602;48.000;7.840;2023-07-31T07:35:12;21.50;99.90
1225;DHT22;602;48.000;7.840;2023-07-31T07:37:39;21.70;99.90
1225;DHT22;602;48.000;7.840;2023-07-31T07:40:07;21.90;99.90
1225;DHT22;602;48.000;7.840;2023-07-31T07:42:35;22.00;99.90
1225;DHT22;602;48.000;7.840;2023-07-31T07:45:03;22.20;99.90
1225;DHT22;602;48.000;7.840;2023-07-31T07:47:30;22.50;99.90
1225;DHT22;602;48.000;7.840;2023-07-31T07:49:57;22.80;99.90
1225;DHT22;602;48.000;7.840;2023-07-31T07:52:24;23.10;99.90
1225;DHT22;602;48.000;7.840;2023-07-31T07:54:51;23.60;99.90
1225;DHT22;602;48.000;7.840;2023-07-31T07:57:17;23.70;99.90
1225;DHT22;602;48.000;7.840;2023-07-31T07:59:46;23.90;99.90
1225;DHT22;602;48.000;7.840;2023-07-31T08:02:13;23.90;99.90
1225;DHT22;602;48.000;7.840;2023-07-31T08:04:40;23.80;99.90
1225;DHT22;602;48.000;7.840;2023-07-31T08:07:07;23.70;99.90
1225;DHT22;602;48.000;7.840;2023-07-31T08:09:34;23.70;99.90
1225;DHT22;602;48.000;7.840;2023-07-31T08:12:00;23.70;99.90
1225;DHT22;602;48.000;7.840;2023-07-31T08:14:31;23.60;99.90
1225;DHT22;602;48.000;7.840;2023-07-31T08:16:59;23.60;99.90
1225;DHT22;602;48.000;7.840;2023-07-31T08:19:27;23.70;99.90
1225;DHT22;602;48.000;7.840;2023-07-31T08:21:54;23.80;99.90
1225;DHT22;602;48.000;7.840;2023-07-31T08:24:21;23.80;99.90
1225;DHT22;602;48.000;7.840;2023-07-31T08:26:48;23.90;99.90
1225;DHT22;602;48.000;7.840;2023-07-31T08:29:15;23.90;99.90
1225;DHT22;602;48.000;7.840;2023-07-31T08:31:42;24.00;99.90
1225;DHT22;602;48.000;7.840;2023-07-31T08:34:10;24.30;99.90
1225;DHT22;602;48.000;7.840;2023-07-31T08:36:37;24.30;99.90
1225;DHT22;602;48.000;7.840;2023-07-31T08:39:04;24.50;99.90
1225;DHT22;602;48.000;7.840;2023-07-31T08:41:31;24.70;99.90
1225;DHT22;602;48.000;7.840;2023-07-31T08:43:58;25.00;99.90
1225;DHT22;602;48.000;7.840;2023-07-31T08:46:26;25.20;99.90
1225;DHT22;602;48.000;7.840;2023-07-31T08:48:55;25.30;99.90
1225;DHT22;602;48.000;7.840;2023-07-31T08:51:26;25.40;99.90
1225;DHT22;602;48.000;7.840;2023-07-31T08:53:53;25.70;99.90
1225;DHT22;602;48.000;7.840;2023-07-31T08:56:21;25.80;99.90
1225;DHT22;602;48.000;7.840;2023-07-31T08:58:49;25.80;99.90
1225;DHT22;602;48.000;7.840;2023-07-31T09:01:17;26.00;99.90
1225;DHT22;602;48.000;7.840;2023-07-31T09:03:50;26.20;99.90
1225;DHT22;602;48.000;7.840;2023-07-31T09:06:20;26.30;99.90
1225;DHT22;602;48.000;7.840;2023-07-31T09:08:50;26.40;99.90
1225;DHT22;602;48.000;7.840;2023-07-31T09:11:17;26.40;99.90
1225;DHT22;602;48.000;7.840;2023-07-31T09:13:46;26.40;99.90
1225;DHT22;602;48.000;7.840;2023-07-31T09:16:13;26.40;99.90
1225;DHT22;602;48.000;7.840;2023-07-31T09:18:53;26.30;99.90
1225;DHT22;602;48.000;7.840;2023-07-31T09:21:20;26.30;99.90
1225;DHT22;602;48.000;7.840;2023-07-31T09:23:50;26.10;99.90
1225;DHT22;602;48.000;7.840;2023-07-31T09:26:29;26.20;99.90
1225;DHT22;602;48.000;7.840;2023-07-31T09:28:57;26.40;99.90
1225;DHT22;602;48.000;7.840;2023-07-31T09:31:32;26.80;99.90
1225;DHT22;602;48.000;7.840;2023-07-31T09:33:59;27.00;99.90
1225;DHT22;602;48.000;7.840;2023-07-31T09:36:29;27.10;99.90
1225;DHT22;602;48.000;7.840;2023-07-31T09:39:02;27.40;99.90
1225;DHT22;602;48.000;7.840;2023-07-31T09:41:29;27.50;99.90
1225;DHT22;602;48.000;7.840;2023-07-31T09:43:56;27.70;99.90
1225;DHT22;602;48.000;7.840;2023-07-31T09:46:27;27.70;99.90
1225;DHT22;602;48.000;7.840;2023-07-31T09:49:06;27.70;99.90
1225;DHT22;602;48.000;7.840;2023-07-31T09:51:34;27.80;99.90
1225;DHT22;602;48.000;7.840;2023-07-31T09:54:09;28.00;99.90
1225;DHT22;602;48.000;7.840;2023-07-31T09:56:39;28.30;99.90
1225;DHT22;602;48.000;7.840;2023-07-31T09:59:08;28.50;99.90
1225;DHT22;602;48.000;7.840;2023-07-31T10:01:37;28.60;99.90
1225;DHT22;602;48.000;7.840;2023-07-31T10:04:05;28.60;99.90
1225;DHT22;602;48.000;7.840;2023-07-31T10:06:34;28.90;99.90
1225;DHT22;602;48.000;7.840;2023-07-31T10:09:02;29.20;99.90
1225;DHT22;602;48.000;7.840;2023-07-31T10:11:34;29.30;99.90
1225;DHT22;602;48.000;7.840;2023-07-31T10:14:05;29.30;99.90
1225;DHT22;602;48.000;7.840;2023-07-31T10:16:32;29.30;99.90
1225;DHT22;602;48.000;7.840;2023-07-31T10:19:01;29.40;99.90
1225;DHT22;602;48.000;7.840;2023-07-31T10:21:28;29.40;99.90
1225;DHT22;602;48.000;7.840;2023-07-31T10:23:55;29.50;99.90
1225;DHT22;602;48.000;7.840;2023-07-31T10:26:23;29.60;99.90
1225;DHT22;602;48.000;7.840;2023-07-31T10:28:53;29.50;99.90
1225;DHT22;602;48.000;7.840;2023-07-31T10:31:21;29.40;99.90
1225;DHT22;602;48.000;7.840;2023-07-31T10:33:48;29.40;99.90
1225;DHT22;602;48.000;7.840;2023-07-31T10:36:17;29.50;99.90
1225;DHT22;602;48.000;7.840;2023-07-31T10:38:44;29.70;99.90
1225;DHT22;602;48.000;7.840;2023-07-31T10:41:12;29.60;99.90
1225;DHT22;602;48.000;7.840;2023-07-31T10:43:40;29.70;99.90
1225;DHT22;602;48.000;7.840;2023-07-31T10:46:09;29.80;99.90
1225;DHT22;602;48.000;7.840;2023-07-31T10:48:38;30.10;99.90
1225;DHT22;602;48.000;7.840;2023-07-31T10:51:08;30.20;99.90
1225;DHT22;602;48.000;7.840;2023-07-31T10:53:36;29.90;99.90
1225;DHT22;602;48.000;7.840;2023-07-31T10:56:04;29.30;99.90
1225;DHT22;602;48.000;7.840;2023-07-31T10:58:31;29.30;99.90
1225;DHT22;602;48.000;7.840;2023-07-31T11:01:01;29.50;99.90
1225;DHT22;602;48.000;7.840;2023-07-31T11:03:43;29.30;99.90
1225;DHT22;602;48.000;7.840;2023-07-31T11:06:10;29.00;99.90
1225;DHT22;602;48.000;7.840;2023-07-31T11:08:42;29.10;99.90
1225;DHT22;602;48.000;7.840;2023-07-31T11:11:10;29.00;99.90
1225;DHT22;602;48.000;7.840;2023-07-31T11:13:42;28.90;99.90
1225;DHT22;602;48.000;7.840;2023-07-31T11:16:09;28.80;99.90
1225;DHT22;602;48.000;7.840;2023-07-31T11:18:38;28.60;99.90
1225;DHT22;602;48.000;7.840;2023-07-31T11:21:07;28.50;99.90
1225;DHT22;602;48.000;7.840;2023-07-31T11:23:37;28.30;99.90
1225;DHT22;602;48.000;7.840;2023-07-31T11:26:05;28.30;99.90
1225;DHT22;602;48.000;7.840;2023-07-31T11:28:33;28.30;99.90
1225;DHT22;602;48.000;7.840;2023-07-31T11:31:00;28.20;99.90
1225;DHT22;602;48.000;7.840;2023-07-31T11:33:28;28.60;99.90
1225;DHT22;602;48.000;7.840;2023-07-31T11:35:55;28.70;99.90
1225;DHT22;602;48.000;7.840;2023-07-31T11:38:24;28.70;99.90
1225;DHT22;602;48.000;7.840;2023-07-31T11:40:52;28.60;99.90
1225;DHT22;602;48.000;7.840;2023-07-31T11:43:19;28.60;99.90
1225;DHT22;602;48.000;7.840;2023-07-31T11:45:47;28.50;99.90
1225;DHT22;602;48.000;7.840;2023-07-31T11:48:22;28.50;99.90
1225;DHT22;602;48.000;7.840;2023-07-31T11:50:50;28.50;99.90
1225;DHT22;602;48.000;7.840;2023-07-31T11:53:20;28.70;99.90
1225;DHT22;602;48.000;7.840;2023-07-31T11:55:49;28.60;99.90
1225;DHT22;602;48.000;7.840;2023-07-31T11:58:17;28.60;99.90
1225;DHT22;602;48.000;7.840;2023-07-31T12:00:44;28.60;99.90
1225;DHT22;602;48.000;7.840;2023-07-31T12:03:12;28.80;99.90
1225;DHT22;602;48.000;7.840;2023-07-31T12:05:39;29.00;99.90
1225;DHT22;602;48.000;7.840;2023-07-31T12:08:09;29.10;99.90
1225;DHT22;602;48.000;7.840;2023-07-31T12:10:38;29.20;99.90
1225;DHT22;602;48.000;7.840;2023-07-31T12:13:09;29.60;99.90
1225;DHT22;602;48.000;7.840;2023-07-31T12:15:40;29.60;99.90
1225;DHT22;602;48.000;7.840;2023-07-31T12:18:10;29.60;99.90
1225;DHT22;602;48.000;7.840;2023-07-31T12:20:41;29.80;99.90
1225;DHT22;602;48.000;7.840;2023-07-31T12:23:16;29.90;99.90
1225;DHT22;602;48.000;7.840;2023-07-31T12:25:44;30.00;99.90
1225;DHT22;602;48.000;7.840;2023-07-31T12:28:12;30.30;99.90
1225;DHT22;602;48.000;7.840;2023-07-31T12:30:40;30.50;99.90
1225;DHT22;602;48.000;7.840;2023-07-31T12:33:13;30.40;99.90
1225;DHT22;602;48.000;7.840;2023-07-31T12:35:43;30.30;99.90
1225;DHT22;602;48.000;7.840;2023-07-31T12:38:11;30.20;99.90
1225;DHT22;602;48.000;7.840;2023-07-31T12:40:38;30.30;99.90
1225;DHT22;602;48.000;7.840;2023-07-31T12:43:05;30.50;99.90
1225;DHT22;602;48.000;7.840;2023-07-31T12:45:34;30.70;99.90
1225;DHT22;602;48.000;7.840;2023-07-31T12:48:02;30.70;99.90
1225;DHT22;602;48.000;7.840;2023-07-31T12:50:28;30.40;99.90
1225;DHT22;602;48.000;7.840;2023-07-31T12:52:56;30.30;99.90
1225;DHT22;602;48.000;7.840;2023-07-31T12:55:23;30.30;99.90
1225;DHT22;602;48.000;7.840;2023-07-31T12:57:51;30.30;99.90
1225;DHT22;602;48.000;7.840;2023-07-31T13:00:18;30.30;99.90
1225;DHT22;602;48.000;7.840;2023-07-31T13:02:46;30.30;99.90
1225;DHT22;602;48.000;7.840;2023-07-31T13:05:13;30.10;99.90
1225;DHT22;602;48.000;7.840;2023-07-31T13:07:40;30.00;99.90
1225;DHT22;602;48.000;7.840;2023-07-31T13:10:08;30.00;99.90
1225;DHT22;602;48.000;7.840;2023-07-31T13:12:35;29.90;99.90
1225;DHT22;602;48.000;7.840;2023-07-31T13:15:06;29.70;99.90
1225;DHT22;602;48.000;7.840;2023-07-31T13:17:33;29.50;99.90
1225;DHT22;602;48.000;7.840;2023-07-31T13:20:02;29.50;99.90
1225;DHT22;602;48.000;7.840;2023-07-31T13:22:29;29.40;99.90
1225;DHT22;602;48.000;7.840;2023-07-31T13:24:56;29.40;99.90
1225;DHT22;602;48.000;7.840;2023-07-31T13:27:23;29.40;99.90
1225;DHT22;602;48.000;7.840;2023-07-31T13:29:50;29.40;99.90
1225;DHT22;602;48.000;7.840;2023-07-31T13:32:18;29.30;99.90
1225;DHT22;602;48.000;7.840;2023-07-31T13:34:45;29.20;99.90
1225;DHT22;602;48.000;7.840;2023-07-31T13:37:14;29.30;99.90
1225;DHT22;602;48.000;7.840;2023-07-31T13:39:41;29.30;99.90
1225;DHT22;602;48.000;7.840;2023-07-31T13:42:09;29.30;99.90
1225;DHT22;602;48.000;7.840;2023-07-31T13:44:38;29.30;99.90
1225;DHT22;602;48.000;7.840;2023-07-31T13:47:05;29.30;99.90
1225;DHT22;602;48.000;7.840;2023-07-31T13:49:33;29.30;99.90
1225;DHT22;602;48.000;7.840;2023-07-31T13:52:00;29.10;99.90
1225;DHT22;602;48.000;7.840;2023-07-31T13:54:28;29.00;99.90
1225;DHT22;602;48.000;7.840;2023-07-31T13:56:55;29.00;99.90
1225;DHT22;602;48.000;7.840;2023-07-31T13:59:22;29.00;99.90
1225;DHT22;602;48.000;7.840;2023-07-31T14:01:50;28.70;99.90
1225;DHT22;602;48.000;7.840;2023-07-31T14:04:17;28.60;99.90
1225;DHT22;602;48.000;7.840;2023-07-31T14:06:44;28.60;99.90
1225;DHT22;602;48.000;7.840;2023-07-31T14:09:13;28.70;99.90
1225;DHT22;602;48.000;7.840;2023-07-31T14:11:42;28.70;99.90
1225;DHT22;602;48.000;7.840;2023-07-31T14:14:09;28.80;99.90
1225;DHT22;602;48.000;7.840;2023-07-31T14:16:36;28.70;99.90
1225;DHT22;602;48.000;7.840;2023-07-31T14:19:03;28.40;99.90
1225;DHT22;602;48.000;7.840;2023-07-31T14:21:30;28.20;99.90
1225;DHT22;602;48.000;7.840;2023-07-31T14:23:57;28.20;99.90
1225;DHT22;602;48.000;7.840;2023-07-31T14:26:24;28.20;99.90
1225;DHT22;602;48.000;7.840;2023-07-31T14:28:52;28.30;99.90
1225;DHT22;602;48.000;7.840;2023-07-31T14:31:19;28.40;99.90
1225;DHT22;602;48.000;7.840;2023-07-31T14:33:46;28.50;99.90
1225;DHT22;602;48.000;7.840;2023-07-31T14:36:13;28.50;99.90
1225;DHT22;602;48.000;7.840;2023-07-31T14:38:40;28.30;99.90
1225;DHT22;602;48.000;7.840;2023-07-31T14:41:07;28.30;99.90
1225;DHT22;602;48.000;7.840;2023-07-31T14:43:34;28.40;99.90
1225;DHT22;602;48.000;7.840;2023-07-31T14:46:02;28.20;99.90
1225;DHT22;602;48.000;7.840;2023-07-31T14:48:29;28.20;99.90
1225;DHT22;602;48.000;7.840;2023-07-31T14:50:56;28.30;99.90
1225;DHT22;602;48.000;7.840;2023-07-31T14:53:23;28.40;99.90
1225;DHT22;602;48.000;7.840;2023-07-31T14:55:50;28.40;99.90
1225;DHT22;602;48.000;7.840;2023-07-31T14:58:17;28.20;99.90
1225;DHT22;602;48.000;7.840;2023-07-31T15:00:44;28.10;99.90
1225;DHT22;602;48.000;7.840;2023-07-31T15:03:12;28.00;99.90
1225;DHT22;602;48.000;7.840;2023-07-31T15:05:39;28.00;99.90
1225;DHT22;602;48.000;7.840;2023-07-31T15:08:06;28.00;99.90
1225;DHT22;602;48.000;7.840;2023-07-31T15:10:33;28.00;99.90
1225;DHT22;602;48.000;7.840;2023-07-31T15:13:00;27.80;99.90
1225;DHT22;602;48.000;7.840;2023-07-31T15:15:27;27.80;99.90
1225;DHT22;602;48.000;7.840;2023-07-31T15:17:54;27.70;99.90
1225;DHT22;602;48.000;7.840;2023-07-31T15:20:23;27.80;99.90
1225;DHT22;602;48.000;7.840;2023-07-31T15:22:50;27.80;99.90
1225;DHT22;602;48.000;7.840;2023-07-31T15:25:17;27.60;99.90
1225;DHT22;602;48.000;7.840;2023-07-31T15:27:44;27.60;99.90
1225;DHT22;602;48.000;7.840;2023-07-31T15:30:11;27.50;99.90
1225;DHT22;602;48.000;7.840;2023-07-31T15:32:38;27.50;99.90
1225;DHT22;602;48.000;7.840;2023-07-31T15:35:06;27.50;99.90
1225;DHT22;602;48.000;7.840;2023-07-31T15:37:34;27.30;99.90
1225;DHT22;602;48.000;7.840;2023-07-31T15:40:01;27.30;99.90
1225;DHT22;602;48.000;7.840;2023-07-31T15:42:28;27.20;99.90
1225;DHT22;602;48.000;7.840;2023-07-31T15:44:55;27.20;99.90
1225;DHT22;602;48.000;7.840;2023-07-31T15:47:22;27.20;99.90
1225;DHT22;602;48.000;7.840;2023-07-31T15:49:49;27.20;99.90
1225;DHT22;602;48.000;7.840;2023-07-31T15:52:16;27.20;99.90
1225;DHT22;602;48.000;7.840;2023-07-31T15:54:44;27.10;99.90
1225;DHT22;602;48.000;7.840;2023-07-31T15:57:11;27.00;99.90
1225;DHT22;602;48.000;7.840;2023-07-31T15:59:38;27.00;99.90
1225;DHT22;602;48.000;7.840;2023-07-31T16:02:05;27.00;99.90
1225;DHT22;602;48.000;7.840;2023-07-31T16:04:33;26.80;99.90
1225;DHT22;602;48.000;7.840;2023-07-31T16:07:00;26.80;99.90
1225;DHT22;602;48.000;7.840;2023-07-31T16:09:27;26.80;99.90
1225;DHT22;602;48.000;7.840;2023-07-31T16:11:55;26.90;99.90
1225;DHT22;602;48.000;7.840;2023-07-31T16:14:22;26.90;99.90
1225;DHT22;602;48.000;7.840;2023-07-31T16:16:49;26.90;99.90
1225;DHT22;602;48.000;7.840;2023-07-31T16:19:16;26.70;99.90
1225;DHT22;602;48.000;7.840;2023-07-31T16:21:43;26.70;99.90